createdAt,value
2023-05-14T00:01:36.610Z,55.92
2023-05-14T00:04:04.271Z,56.09
2023-05-14T00:06:32.066Z,56.03
2023-05-14T00:08:59.496Z,56.56
2023-05-14T00:11:26.872Z,56.65
2023-05-14T00:13:54.382Z,56.58
2023-05-14T00:16:21.771Z,56.62
2023-05-14T00:18:49.539Z,56.80
2023-05-14T00:21:17.365Z,57.04
2023-05-14T00:23:44.870Z,57.00
2023-05-14T00:26:12.303Z,57.11
2023-05-14T00:28:40.595Z,57.30
2023-05-14T00:31:08.507Z,57.51
2023-05-14T00:33:36.316Z,57.58
2023-05-14T00:36:04.224Z,57.70
2023-05-14T00:38:32.153Z,57.62
2023-05-14T00:40:59.514Z,58.03
2023-05-14T00:43:27.005Z,58.02
2023-05-14T00:45:54.878Z,58.06
2023-05-14T00:48:22.718Z,58.12
2023-05-14T00:50:50.171Z,58.30
2023-05-14T00:53:20.908Z,58.30
2023-05-14T00:55:49.274Z,58.39
2023-05-14T00:58:16.852Z,58.35
2023-05-14T01:00:44.337Z,58.06
2023-05-14T01:03:11.983Z,58.07
2023-05-14T01:05:46.015Z,58.13
2023-05-14T01:08:17.276Z,58.17
2023-05-14T01:10:49.372Z,58.08
2023-05-14T01:13:29.008Z,57.99
2023-05-14T01:15:57.829Z,58.03
2023-05-14T01:18:25.535Z,58.21
2023-05-14T01:20:53.837Z,57.68
2023-05-14T01:23:21.375Z,57.67
2023-05-14T01:25:49.032Z,57.82
2023-05-14T01:28:20.553Z,57.86
2023-05-14T01:30:58.283Z,57.74
2023-05-14T01:33:26.384Z,57.81
2023-05-14T01:35:54.667Z,57.85
2023-05-14T01:38:22.387Z,57.37
2023-05-14T01:40:51.124Z,57.05
2023-05-14T01:43:18.825Z,57.06
2023-05-14T01:45:46.405Z,56.86
2023-05-14T01:48:13.916Z,56.87
2023-05-14T01:50:41.467Z,57.26
2023-05-14T01:53:08.826Z,57.36
2023-05-14T01:55:36.633Z,57.17
2023-05-14T01:58:04.680Z,57.28
2023-05-14T02:00:33.294Z,57.28
2023-05-14T02:03:00.779Z,57.48
2023-05-14T02:05:28.515Z,57.48
2023-05-14T02:07:56.784Z,57.58
2023-05-14T02:10:24.442Z,57.40
2023-05-14T02:12:52.330Z,57.35
2023-05-14T02:15:20.048Z,57.38
2023-05-14T02:17:47.818Z,57.50
2023-05-14T02:20:15.805Z,57.45
2023-05-14T02:22:46.147Z,57.90
2023-05-14T02:25:13.622Z,58.06
2023-05-14T02:27:41.402Z,58.13
2023-05-14T02:30:09.813Z,58.57
2023-05-14T02:32:38.818Z,58.59
2023-05-14T02:35:06.990Z,58.65
2023-05-14T02:37:34.950Z,58.47
2023-05-14T02:40:02.474Z,58.37
2023-05-14T02:42:30.344Z,58.25
2023-05-14T02:44:57.854Z,57.90
2023-05-14T02:47:25.357Z,58.34
2023-05-14T02:49:53.107Z,58.64
2023-05-14T02:52:21.362Z,58.91
2023-05-14T02:54:49.179Z,58.82
2023-05-14T02:57:16.893Z,59.23
2023-05-14T02:59:44.486Z,59.15
2023-05-14T03:02:12.382Z,59.12
2023-05-14T03:04:40.449Z,59.07
2023-05-14T03:07:07.857Z,59.46
2023-05-14T03:09:38.104Z,60.02
2023-05-14T03:12:07.815Z,60.29
2023-05-14T03:14:35.911Z,60.50
2023-05-14T03:17:04.135Z,60.18
2023-05-14T03:19:32.565Z,59.41
2023-05-14T03:22:00.234Z,59.69
2023-05-14T03:24:27.814Z,59.94
2023-05-14T03:26:55.983Z,59.89
2023-05-14T03:29:23.505Z,60.34
2023-05-14T03:31:51.125Z,60.46
2023-05-14T03:34:18.641Z,60.58
2023-05-14T03:36:46.300Z,60.80
2023-05-14T03:39:19.683Z,60.42
2023-05-14T03:41:47.861Z,60.40
2023-05-14T03:44:15.712Z,60.41
2023-05-14T03:46:43.229Z,60.25
2023-05-14T03:49:10.962Z,60.42
2023-05-14T03:51:38.582Z,60.46
2023-05-14T03:54:06.890Z,60.20
2023-05-14T03:56:35.763Z,60.09
2023-05-14T03:59:03.791Z,60.06
2023-05-14T04:01:33.448Z,60.03
2023-05-14T04:04:00.935Z,59.41
2023-05-14T04:06:28.464Z,59.25
2023-05-14T04:08:55.812Z,58.19
2023-05-14T04:11:23.307Z,58.51
2023-05-14T04:13:50.976Z,58.93
2023-05-14T04:16:18.426Z,58.72
2023-05-14T04:18:46.875Z,58.95
2023-05-14T04:21:15.613Z,58.92
2023-05-14T04:23:43.013Z,59.50
2023-05-14T04:26:10.364Z,59.33
2023-05-14T04:28:37.716Z,58.62
2023-05-14T04:31:05.614Z,58.28
2023-05-14T04:33:33.192Z,56.35
2023-05-14T04:36:01.120Z,55.59
2023-05-14T04:38:32.120Z,55.36
2023-05-14T04:40:59.488Z,55.50
2023-05-14T04:43:26.915Z,54.62
2023-05-14T04:45:57.407Z,53.50
2023-05-14T04:48:24.920Z,52.88
2023-05-14T04:51:07.912Z,52.30
2023-05-14T04:53:36.195Z,51.93
2023-05-14T04:56:03.818Z,51.83
2023-05-14T04:58:34.611Z,51.14
2023-05-14T05:01:05.143Z,51.61
2023-05-14T05:03:32.676Z,51.19
2023-05-14T05:06:00.455Z,50.52
2023-05-14T05:08:28.754Z,50.91
2023-05-14T05:10:59.180Z,50.78
2023-05-14T05:13:26.910Z,49.86
2023-05-14T05:15:54.366Z,49.38
2023-05-14T05:18:22.278Z,48.63
2023-05-14T05:20:50.418Z,48.79
2023-05-14T05:23:19.214Z,47.87
2023-05-14T05:25:46.712Z,46.59
2023-05-14T05:28:14.626Z,46.63
2023-05-14T05:30:42.301Z,47.24
2023-05-14T05:33:09.940Z,46.99
2023-05-14T05:35:37.881Z,46.81
2023-05-14T05:38:05.873Z,46.84
2023-05-14T05:40:34.048Z,47.27
2023-05-14T05:43:01.504Z,47.45
2023-05-14T05:45:28.956Z,47.07
2023-05-14T05:47:56.516Z,47.14
2023-05-14T05:50:24.762Z,47.01
2023-05-14T05:52:53.001Z,47.05
2023-05-14T05:55:20.640Z,46.76
2023-05-14T05:57:48.227Z,46.52
2023-05-14T06:00:16.973Z,47.05
2023-05-14T06:02:44.733Z,47.03
2023-05-14T06:05:12.725Z,47.31
2023-05-14T06:07:40.592Z,47.31
2023-05-14T06:10:08.459Z,46.79
2023-05-14T06:12:36.141Z,46.11
2023-05-14T06:15:03.726Z,46.02
2023-05-14T06:17:31.925Z,46.55
2023-05-14T06:19:59.508Z,47.46
2023-05-14T06:22:27.144Z,47.67
2023-05-14T06:24:54.657Z,48.18
2023-05-14T06:27:22.090Z,49.01
2023-05-14T06:29:50.295Z,48.67
2023-05-14T06:32:17.779Z,48.17
2023-05-14T06:34:46.022Z,48.38
2023-05-14T06:37:13.479Z,47.37
2023-05-14T06:39:44.180Z,47.32
2023-05-14T06:42:11.776Z,45.90
2023-05-14T06:44:39.520Z,46.15
2023-05-14T06:47:08.551Z,45.60
2023-05-14T06:49:36.575Z,42.77
2023-05-14T06:52:04.078Z,43.00
2023-05-14T06:54:31.541Z,43.53
2023-05-14T06:56:58.940Z,41.64
2023-05-14T06:59:26.482Z,42.22
2023-05-14T07:01:53.951Z,42.41
2023-05-14T07:04:21.330Z,41.20
2023-05-14T07:06:48.785Z,41.73
2023-05-14T07:09:16.177Z,42.30
2023-05-14T07:11:43.658Z,41.62
2023-05-14T07:14:11.138Z,41.18
2023-05-14T07:16:38.841Z,41.32
2023-05-14T07:19:06.311Z,41.34
2023-05-14T07:21:34.496Z,40.58
2023-05-14T07:24:02.186Z,40.05
2023-05-14T07:26:30.504Z,40.56
2023-05-14T07:28:57.892Z,39.52
2023-05-14T07:31:25.431Z,39.54
2023-05-14T07:33:53.104Z,39.98
2023-05-14T07:36:20.582Z,39.73
2023-05-14T07:38:48.058Z,39.78
2023-05-14T07:41:15.517Z,39.83
2023-05-14T07:43:42.836Z,38.58
2023-05-14T07:46:10.366Z,39.05
2023-05-14T07:48:37.763Z,39.41
2023-05-14T07:51:05.183Z,37.89
2023-05-14T07:53:32.831Z,37.96
2023-05-14T07:56:00.282Z,39.19
2023-05-14T07:58:28.902Z,37.38
2023-05-14T08:00:57.636Z,36.31
2023-05-14T08:03:25.335Z,36.81
2023-05-14T08:05:52.812Z,35.17
2023-05-14T08:08:20.197Z,35.34
2023-05-14T08:10:47.623Z,34.99
2023-05-14T08:13:15.109Z,35.36
2023-05-14T08:15:42.624Z,35.35
2023-05-14T08:18:10.184Z,36.89
2023-05-14T08:20:38.536Z,34.91
2023-05-14T08:23:07.405Z,34.35
2023-05-14T08:25:34.947Z,35.74
2023-05-14T08:28:02.394Z,34.65
2023-05-14T08:30:30.113Z,34.40
2023-05-14T08:32:58.389Z,34.55
2023-05-14T08:35:25.959Z,34.49
2023-05-14T08:37:53.493Z,34.49
2023-05-14T08:40:21.450Z,35.42
2023-05-14T08:42:49.010Z,34.76
2023-05-14T08:45:16.340Z,34.36
2023-05-14T08:47:49.341Z,34.40
2023-05-14T08:50:17.277Z,33.63
2023-05-14T08:52:44.796Z,33.63
2023-05-14T08:55:13.459Z,33.63
2023-05-14T08:57:41.143Z,33.75
2023-05-14T09:00:11.924Z,34.78
2023-05-14T09:02:41.882Z,33.58
2023-05-14T09:05:09.907Z,33.89
2023-05-14T09:07:37.798Z,33.96
2023-05-14T09:10:08.952Z,33.76
2023-05-14T09:12:36.546Z,32.67
2023-05-14T09:15:04.875Z,32.98
2023-05-14T09:17:32.888Z,33.28
2023-05-14T09:20:00.667Z,32.05
2023-05-14T09:22:29.227Z,31.97
2023-05-14T09:25:04.861Z,31.61
2023-05-14T09:27:34.762Z,32.14
2023-05-14T09:30:12.374Z,32.22
2023-05-14T09:32:48.286Z,31.73
2023-05-14T09:35:20.642Z,31.76
2023-05-14T09:37:54.743Z,30.86
2023-05-14T09:40:24.124Z,30.19
2023-05-14T09:42:52.120Z,29.70
2023-05-14T09:45:19.557Z,29.58
2023-05-14T09:47:47.000Z,30.52
2023-05-14T09:50:14.527Z,29.19
2023-05-14T09:52:42.411Z,28.92
2023-05-14T09:55:10.253Z,28.74
2023-05-14T09:57:38.165Z,28.92
2023-05-14T10:00:06.819Z,28.73
2023-05-14T10:02:38.049Z,29.10
2023-05-14T10:05:06.501Z,29.09
2023-05-14T10:07:46.833Z,28.69
2023-05-14T10:10:16.674Z,29.25
2023-05-14T10:12:45.971Z,28.76
2023-05-14T10:15:22.561Z,29.57
2023-05-14T10:17:55.280Z,29.61
2023-05-14T10:20:23.315Z,30.23
2023-05-14T10:22:51.020Z,28.91
2023-05-14T10:25:18.813Z,28.79
2023-05-14T10:27:46.516Z,28.30
2023-05-14T10:30:14.569Z,28.81
2023-05-14T10:32:44.340Z,28.94
2023-05-14T10:35:20.908Z,29.81
2023-05-14T10:37:51.500Z,28.91
2023-05-14T10:40:19.478Z,28.88
2023-05-14T10:42:47.362Z,29.01
2023-05-14T10:45:15.465Z,28.43
2023-05-14T10:47:43.822Z,28.97
2023-05-14T10:50:12.569Z,28.50
2023-05-14T10:52:44.067Z,27.70
2023-05-14T10:55:15.537Z,28.85
2023-05-14T10:57:46.404Z,28.60
2023-05-14T11:00:14.722Z,29.81
2023-05-14T11:02:43.784Z,28.99
2023-05-14T11:05:16.028Z,27.93
2023-05-14T11:07:53.972Z,27.01
2023-05-14T11:10:22.249Z,27.51
2023-05-14T11:12:51.057Z,28.66
2023-05-14T11:15:19.367Z,28.88
2023-05-14T11:17:47.405Z,29.29
2023-05-14T11:20:15.091Z,30.16
2023-05-14T11:22:43.371Z,30.68
2023-05-14T11:25:11.454Z,33.96
2023-05-14T11:27:39.464Z,39.30
2023-05-14T11:30:14.203Z,44.14
2023-05-14T11:32:44.355Z,42.66
2023-05-14T11:35:12.186Z,44.60
2023-05-14T11:37:40.330Z,44.47
2023-05-14T11:40:12.622Z,49.04
2023-05-14T11:42:40.224Z,50.20
2023-05-14T11:45:12.006Z,54.39
2023-05-14T11:47:41.683Z,55.01
2023-05-14T11:50:09.938Z,55.50
2023-05-14T11:52:41.036Z,54.53
2023-05-14T11:55:12.862Z,47.50
2023-05-14T11:57:41.172Z,46.18
2023-05-14T12:00:11.208Z,46.00
2023-05-14T12:02:38.959Z,46.16
2023-05-14T12:05:07.517Z,46.14
2023-05-14T12:07:36.046Z,47.20
2023-05-14T12:10:04.019Z,46.76
2023-05-14T12:12:35.239Z,46.41
2023-05-14T12:15:02.775Z,46.60
2023-05-14T12:17:31.420Z,44.94
2023-05-14T12:19:59.022Z,44.05
2023-05-14T12:22:26.553Z,41.96
2023-05-14T12:24:57.962Z,41.67
2023-05-14T12:27:26.650Z,41.38
2023-05-14T12:30:19.999Z,40.21
2023-05-14T12:32:52.718Z,41.05
2023-05-14T12:35:21.614Z,41.78
2023-05-14T12:37:49.473Z,39.41
2023-05-14T12:40:17.260Z,38.00
2023-05-14T12:42:44.844Z,38.76
2023-05-14T12:45:12.380Z,38.24
2023-05-14T12:47:40.231Z,38.12
2023-05-14T12:50:08.065Z,36.31
2023-05-14T12:52:39.165Z,37.17
2023-05-14T12:55:08.908Z,36.09
2023-05-14T12:57:37.319Z,36.45
2023-05-14T13:00:08.614Z,35.21
2023-05-14T13:02:42.863Z,34.50
2023-05-14T13:05:11.421Z,35.58
2023-05-14T13:07:39.513Z,35.97
2023-05-14T13:10:08.326Z,35.34
2023-05-14T13:12:36.202Z,35.25
2023-05-14T13:15:04.024Z,36.07
2023-05-14T13:17:31.973Z,35.06
2023-05-14T13:19:59.572Z,33.52
2023-05-14T13:22:27.045Z,33.49
2023-05-14T13:24:54.521Z,33.75
2023-05-14T13:27:22.017Z,34.45
2023-05-14T13:29:49.513Z,34.20
2023-05-14T13:32:17.044Z,34.30
2023-05-14T13:34:44.590Z,35.47
2023-05-14T13:37:12.207Z,35.41
2023-05-14T13:39:41.143Z,35.82
2023-05-14T13:42:08.909Z,35.93
2023-05-14T13:44:36.445Z,36.06
2023-05-14T13:47:04.357Z,35.66
2023-05-14T13:49:31.911Z,35.34
2023-05-14T13:51:59.529Z,35.75
2023-05-14T13:54:27.320Z,36.71
2023-05-14T13:56:54.838Z,35.41
2023-05-14T13:59:23.731Z,35.59
2023-05-14T14:01:51.766Z,33.67
2023-05-14T14:04:20.059Z,32.93
2023-05-14T14:06:47.630Z,32.21
2023-05-14T14:09:15.196Z,32.54
2023-05-14T14:11:42.760Z,33.08
2023-05-14T14:14:10.421Z,33.73
2023-05-14T14:16:38.396Z,33.01
2023-05-14T14:19:06.842Z,32.95
2023-05-14T14:21:35.434Z,31.82
2023-05-14T14:24:02.992Z,31.91
2023-05-14T14:26:30.622Z,32.18
2023-05-14T14:28:58.752Z,32.04
2023-05-14T14:31:26.253Z,30.31
2023-05-14T14:33:53.794Z,30.92
2023-05-14T14:36:21.368Z,31.48
2023-05-14T14:38:49.001Z,31.13
2023-05-14T14:41:16.610Z,30.53
2023-05-14T14:43:44.177Z,31.15
2023-05-14T14:46:11.643Z,30.69
2023-05-14T14:48:41.442Z,30.38
2023-05-14T14:51:09.092Z,30.19
2023-05-14T14:53:37.182Z,31.22
2023-05-14T14:56:05.109Z,31.18
2023-05-14T14:58:32.914Z,31.46
2023-05-14T15:01:01.221Z,31.56
2023-05-14T15:03:29.423Z,31.84
2023-05-14T15:05:57.059Z,32.23
2023-05-14T15:08:26.559Z,32.24
2023-05-14T15:10:55.016Z,32.10
2023-05-14T15:13:22.519Z,32.51
2023-05-14T15:15:50.723Z,32.09
2023-05-14T15:18:18.336Z,32.26
2023-05-14T15:20:46.173Z,33.13
2023-05-14T15:23:13.763Z,33.13
2023-05-14T15:25:41.235Z,32.95
2023-05-14T15:28:08.993Z,32.62
2023-05-14T15:30:36.558Z,33.41
2023-05-14T15:33:04.223Z,32.98
2023-05-14T15:35:32.035Z,32.65
2023-05-14T15:37:59.879Z,33.50
2023-05-14T15:40:27.752Z,33.12
2023-05-14T15:42:55.967Z,33.04
2023-05-14T15:45:23.581Z,33.51
2023-05-14T15:47:51.272Z,33.35
2023-05-14T15:50:19.052Z,33.85
2023-05-14T15:52:46.672Z,34.04
2023-05-14T15:55:14.196Z,34.67
2023-05-14T15:57:41.794Z,34.03
2023-05-14T16:00:11.159Z,34.04
2023-05-14T16:02:39.379Z,33.99
2023-05-14T16:05:07.597Z,34.56
2023-05-14T16:07:36.475Z,34.39
2023-05-14T16:10:04.369Z,35.47
2023-05-14T16:12:32.330Z,34.91
2023-05-14T16:15:00.187Z,35.57
2023-05-14T16:17:28.227Z,35.43
2023-05-14T16:19:56.574Z,35.66
2023-05-14T16:22:24.226Z,36.43
2023-05-14T16:24:51.830Z,36.50
2023-05-14T16:27:19.361Z,37.38
2023-05-14T16:29:46.862Z,36.75
2023-05-14T16:32:14.334Z,37.93
2023-05-14T16:34:41.967Z,37.63
2023-05-14T16:37:10.784Z,37.19
2023-05-14T16:39:40.060Z,37.05
2023-05-14T16:42:07.687Z,36.81
2023-05-14T16:44:35.251Z,36.59
2023-05-14T16:47:02.824Z,37.19
2023-05-14T16:49:30.426Z,37.37
2023-05-14T16:51:58.297Z,37.34
2023-05-14T16:54:25.900Z,37.23
2023-05-14T16:56:53.421Z,37.85
2023-05-14T16:59:20.929Z,37.52
2023-05-14T17:01:48.633Z,37.25
2023-05-14T17:04:16.399Z,38.08
2023-05-14T17:06:44.148Z,38.08
2023-05-14T17:09:11.603Z,38.60
2023-05-14T17:11:39.089Z,38.99
2023-05-14T17:14:06.916Z,39.07
2023-05-14T17:16:34.528Z,39.42
2023-05-14T17:19:02.106Z,39.42
2023-05-14T17:21:29.748Z,39.73
2023-05-14T17:23:57.456Z,39.01
2023-05-14T17:26:24.977Z,39.07
2023-05-14T17:28:52.652Z,39.00
2023-05-14T17:31:21.833Z,39.31
2023-05-14T17:33:49.540Z,39.72
2023-05-14T17:36:17.138Z,40.14
2023-05-14T17:38:44.616Z,40.46
2023-05-14T17:41:12.402Z,40.57
2023-05-14T17:43:39.838Z,40.36
2023-05-14T17:46:07.590Z,40.37
2023-05-14T17:48:35.222Z,40.31
2023-05-14T17:51:02.669Z,41.16
2023-05-14T17:53:30.393Z,41.07
2023-05-14T17:55:58.024Z,41.19
2023-05-14T17:58:25.656Z,41.19
2023-05-14T18:00:53.569Z,41.14
2023-05-14T18:03:21.450Z,40.96
2023-05-14T18:05:49.315Z,41.03
2023-05-14T18:08:17.304Z,41.35
2023-05-14T18:10:44.735Z,41.06
2023-05-14T18:13:12.402Z,40.75
2023-05-14T18:15:40.031Z,41.01
2023-05-14T18:18:07.601Z,40.84
2023-05-14T18:20:35.642Z,40.95
2023-05-14T18:23:03.621Z,41.17
2023-05-14T18:25:31.141Z,41.15
2023-05-14T18:27:59.164Z,41.61
2023-05-14T18:30:27.309Z,41.74
2023-05-14T18:32:54.901Z,41.84
2023-05-14T18:35:22.586Z,41.96
2023-05-14T18:37:50.102Z,41.76
2023-05-14T18:40:18.889Z,42.20
2023-05-14T18:42:46.793Z,42.44
2023-05-14T18:45:14.595Z,42.55
2023-05-14T18:47:42.054Z,42.42
2023-05-14T18:50:09.767Z,42.49
2023-05-14T18:52:38.292Z,42.85
2023-05-14T18:55:06.123Z,42.88
2023-05-14T18:57:34.094Z,42.86
2023-05-14T19:00:05.236Z,43.00
2023-05-14T19:02:35.110Z,43.18
2023-05-14T19:05:05.093Z,42.62
2023-05-14T19:07:33.123Z,42.91
2023-05-14T19:10:00.725Z,42.74
2023-05-14T19:12:28.586Z,43.07
2023-05-14T19:14:56.140Z,43.37
2023-05-14T19:17:24.658Z,43.84
2023-05-14T19:19:52.191Z,44.13
2023-05-14T19:22:25.762Z,44.52
2023-05-14T19:24:55.005Z,45.04
2023-05-14T19:27:24.181Z,45.08
2023-05-14T19:29:51.736Z,44.82
2023-05-14T19:32:19.554Z,44.71
2023-05-14T19:34:48.425Z,44.85
2023-05-14T19:37:17.022Z,45.36
2023-05-14T19:39:47.030Z,45.48
2023-05-14T19:42:14.502Z,45.71
2023-05-14T19:44:42.369Z,46.15
2023-05-14T19:47:10.029Z,46.38
2023-05-14T19:49:37.800Z,46.72
2023-05-14T19:52:05.821Z,46.58
2023-05-14T19:54:33.835Z,47.07
2023-05-14T19:57:01.568Z,47.60
2023-05-14T19:59:29.937Z,47.57
2023-05-14T20:01:57.652Z,47.88
2023-05-14T20:04:26.127Z,48.51
2023-05-14T20:06:53.715Z,48.89
2023-05-14T20:09:21.259Z,48.67
2023-05-14T20:11:48.762Z,48.90
2023-05-14T20:14:16.268Z,49.07
2023-05-14T20:16:43.848Z,49.17
2023-05-14T20:19:12.129Z,49.49
2023-05-14T20:21:39.774Z,49.64
2023-05-14T20:24:07.480Z,49.81
2023-05-14T20:26:35.140Z,49.84
2023-05-14T20:29:02.701Z,49.78
2023-05-14T20:31:31.134Z,49.95
2023-05-14T20:33:58.762Z,50.32
2023-05-14T20:36:26.199Z,50.84
2023-05-14T20:38:53.730Z,51.12
2023-05-14T20:41:22.295Z,51.33
2023-05-14T20:43:49.782Z,51.29
2023-05-14T20:46:18.839Z,51.77
2023-05-14T20:48:47.965Z,52.17
2023-05-14T20:51:15.755Z,52.02
2023-05-14T20:53:43.485Z,52.27
2023-05-14T20:56:11.029Z,52.39
2023-05-14T20:58:39.064Z,52.62
2023-05-14T21:01:08.179Z,52.62
2023-05-14T21:03:37.357Z,52.54
2023-05-14T21:06:05.215Z,52.66
2023-05-14T21:08:34.985Z,52.28
2023-05-14T21:11:02.596Z,52.64
2023-05-14T21:13:30.765Z,52.38
2023-05-14T21:16:00.264Z,51.82
2023-05-14T21:18:30.829Z,51.87
2023-05-14T21:20:58.848Z,51.95
2023-05-14T21:23:26.541Z,51.59
2023-05-14T21:25:55.009Z,51.48
2023-05-14T21:28:22.715Z,51.12
2023-05-14T21:30:50.674Z,50.87
2023-05-14T21:33:18.105Z,49.93
2023-05-14T21:35:45.653Z,49.26
2023-05-14T21:38:13.235Z,48.87
2023-05-14T21:40:40.820Z,48.28
2023-05-14T21:43:08.516Z,48.15
2023-05-14T21:45:36.102Z,48.07
2023-05-14T21:48:03.841Z,48.03
2023-05-14T21:50:31.566Z,47.82
2023-05-14T21:52:59.110Z,48.23
2023-05-14T21:55:27.733Z,48.11
2023-05-14T21:57:55.910Z,47.64
2023-05-14T22:00:24.271Z,48.29
2023-05-14T22:02:54.993Z,49.01
2023-05-14T22:05:22.602Z,48.86
2023-05-14T22:07:50.297Z,48.55
2023-05-14T22:10:18.106Z,47.79
2023-05-14T22:12:46.109Z,48.06
2023-05-14T22:15:13.577Z,47.15
2023-05-14T22:17:41.820Z,47.15
2023-05-14T22:20:12.077Z,47.03
2023-05-14T22:22:39.903Z,46.55
2023-05-14T22:25:07.996Z,46.31
2023-05-14T22:27:36.510Z,46.81
2023-05-14T22:30:04.925Z,47.16
2023-05-14T22:32:33.379Z,47.57
2023-05-14T22:35:01.826Z,47.28
2023-05-14T22:37:29.347Z,47.50
2023-05-14T22:39:56.910Z,47.94
2023-05-14T22:42:24.581Z,48.68
2023-05-14T22:44:52.038Z,48.92
2023-05-14T22:47:19.658Z,48.93
2023-05-14T22:49:47.143Z,49.61
2023-05-14T22:52:14.542Z,49.97
2023-05-14T22:54:42.530Z,50.16
2023-05-14T22:57:10.010Z,50.20
2023-05-14T22:59:39.478Z,50.51
2023-05-14T23:02:07.222Z,50.49
2023-05-14T23:04:35.339Z,50.79
2023-05-14T23:07:02.763Z,50.74
2023-05-14T23:09:30.381Z,50.67
2023-05-14T23:11:57.879Z,50.27
2023-05-14T23:14:25.767Z,49.53
2023-05-14T23:16:53.285Z,48.63
2023-05-14T23:19:21.832Z,48.82
2023-05-14T23:21:49.346Z,48.93
2023-05-14T23:24:16.947Z,48.67
2023-05-14T23:26:44.428Z,48.84
2023-05-14T23:29:11.761Z,49.62
2023-05-14T23:31:41.083Z,50.11
2023-05-14T23:34:08.652Z,50.35
2023-05-14T23:36:36.165Z,50.65
2023-05-14T23:39:03.815Z,51.08
2023-05-14T23:41:31.853Z,51.26
2023-05-14T23:43:59.510Z,51.16
2023-05-14T23:46:27.275Z,50.85
2023-05-14T23:48:57.089Z,50.85
2023-05-14T23:51:24.744Z,51.38
2023-05-14T23:53:56.385Z,51.88
2023-05-14T23:56:24.882Z,52.09
2023-05-14T23:58:52.645Z,51.97
